createdAt,value
2018-07-19T00:00:11.301Z,81.50
2018-07-19T00:01:12.699Z,81.50
2018-07-19T00:02:14.084Z,81.98
2018-07-19T00:03:15.465Z,81.88
2018-07-19T00:04:16.860Z,81.70
2018-07-19T00:05:18.240Z,81.94
2018-07-19T00:06:19.755Z,82.27
2018-07-19T00:07:21.135Z,82.04
2018-07-19T00:08:22.532Z,82.14
2018-07-19T00:09:24.014Z,82.42
2018-07-19T00:10:25.402Z,82.32
2018-07-19T00:11:26.788Z,82.23
2018-07-19T00:12:28.169Z,82.81
2018-07-19T00:13:29.512Z,82.52
2018-07-19T00:14:30.894Z,82.90
2018-07-19T00:15:32.277Z,83.00
2018-07-19T00:16:33.622Z,82.90
2018-07-19T00:17:34.966Z,82.90
2018-07-19T00:18:36.357Z,83.00
2018-07-19T00:19:37.742Z,83.39
2018-07-19T00:20:39.119Z,83.39
2018-07-19T00:21:40.541Z,83.67
2018-07-19T00:22:41.936Z,83.58
2018-07-19T00:23:43.330Z,83.67
2018-07-19T00:24:44.726Z,83.86
2018-07-19T00:25:46.115Z,83.67
2018-07-19T00:26:47.503Z,83.77
2018-07-19T00:27:48.953Z,83.77
2018-07-19T00:28:50.347Z,83.67
2018-07-19T00:29:51.744Z,83.77
2018-07-19T00:30:53.171Z,84.25
2018-07-19T00:31:54.550Z,84.06
2018-07-19T00:32:55.941Z,84.44
2018-07-19T00:33:57.461Z,84.63
2018-07-19T00:34:58.750Z,84.63
2018-07-19T00:36:00.140Z,84.54
2018-07-19T00:37:01.577Z,84.63
2018-07-19T00:38:02.974Z,84.25
2018-07-19T00:39:04.356Z,84.83
2018-07-19T00:40:05.829Z,84.54
2018-07-19T00:41:07.796Z,85.31
2018-07-19T00:42:09.259Z,84.83
2018-07-19T00:43:10.648Z,85.31
2018-07-19T00:44:12.042Z,85.40
2018-07-19T00:45:13.414Z,86.18
2018-07-19T00:46:14.809Z,85.98
2018-07-19T00:47:16.194Z,86.08
2018-07-19T00:48:17.698Z,86.08
2018-07-19T00:49:19.143Z,85.98
2018-07-19T00:50:20.472Z,85.98
2018-07-19T00:51:21.928Z,86.27
2018-07-19T00:52:23.327Z,86.65
2018-07-19T00:53:24.713Z,86.46
2018-07-19T00:54:26.095Z,86.46
2018-07-19T00:55:27.501Z,87.04
2018-07-19T00:56:28.901Z,86.46
2018-07-19T00:57:30.294Z,86.46
2018-07-19T00:58:31.689Z,87.04
2018-07-19T00:59:33.075Z,86.94
2018-07-19T01:00:34.455Z,87.04
2018-07-19T01:01:35.847Z,87.23
2018-07-19T01:02:37.398Z,87.04
2018-07-19T01:03:38.796Z,87.52
2018-07-19T01:04:40.167Z,87.23
2018-07-19T01:05:41.557Z,87.52
2018-07-19T01:06:42.948Z,87.42
2018-07-19T01:07:44.329Z,87.67
2018-07-19T01:08:45.664Z,87.71
2018-07-19T01:09:47.050Z,87.71
2018-07-19T01:10:48.452Z,87.48
2018-07-19T01:11:49.843Z,87.86
2018-07-19T01:12:51.223Z,87.96
2018-07-19T01:13:52.679Z,87.33
2018-07-19T01:14:54.064Z,87.57
2018-07-19T01:15:55.447Z,87.67
2018-07-19T01:16:56.907Z,87.48
2018-07-19T01:17:58.284Z,87.86
2018-07-19T01:18:59.674Z,87.48
2018-07-19T01:20:01.148Z,87.86
2018-07-19T01:21:02.537Z,88.15
2018-07-19T01:22:03.921Z,87.96
2018-07-19T01:23:05.808Z,88.24
2018-07-19T01:24:07.151Z,88.44
2018-07-19T01:25:08.537Z,88.44
2018-07-19T01:26:10.021Z,88.44
2018-07-19T01:27:11.429Z,88.73
2018-07-19T01:28:12.811Z,88.34
2018-07-19T01:29:14.252Z,88.92
2018-07-19T01:30:15.641Z,89.01
2018-07-19T01:31:16.987Z,88.44
2018-07-19T01:32:18.507Z,88.63
2018-07-19T01:33:19.883Z,88.82
2018-07-19T01:34:21.263Z,88.63
2018-07-19T01:35:22.687Z,88.73
2018-07-19T01:36:24.038Z,89.01
2018-07-19T01:37:25.423Z,89.11
2018-07-19T01:38:26.953Z,89.40
2018-07-19T01:39:28.352Z,89.59
2018-07-19T01:40:29.733Z,89.69
2018-07-19T01:41:31.223Z,89.59
2018-07-19T01:42:32.603Z,89.59
2018-07-19T01:43:34.000Z,89.59
2018-07-19T01:44:35.928Z,89.88
2018-07-19T01:45:40.749Z,89.98
2018-07-19T01:46:42.151Z,90.17
2018-07-19T01:47:43.502Z,90.07
2018-07-19T01:48:44.889Z,89.98
2018-07-19T01:49:46.868Z,89.78
2018-07-19T01:50:47.609Z,90.07
2018-07-19T01:51:49.168Z,90.26
2018-07-19T01:52:50.557Z,90.36
2018-07-19T01:53:51.951Z,90.36
2018-07-19T01:54:53.540Z,90.45
2018-07-19T01:55:54.931Z,90.17
2018-07-19T01:56:56.323Z,90.45
2018-07-19T01:57:57.714Z,90.17
2018-07-19T01:58:59.094Z,90.36
2018-07-19T02:00:00.489Z,90.65
2018-07-19T02:01:01.863Z,89.98
2018-07-19T02:02:03.253Z,90.36
2018-07-19T02:03:04.651Z,90.65
2018-07-19T02:04:06.027Z,91.03
2018-07-19T02:05:07.379Z,91.13
2018-07-19T02:06:08.761Z,90.65
2018-07-19T02:07:10.145Z,90.84
2018-07-19T02:08:11.540Z,90.65
2018-07-19T02:09:12.928Z,90.84
2018-07-19T02:10:15.111Z,91.22
2018-07-19T02:11:16.454Z,91.22
2018-07-19T02:12:17.850Z,91.42
2018-07-19T02:13:19.230Z,91.13
2018-07-19T02:14:20.622Z,91.03
2018-07-19T02:15:22.011Z,91.22
2018-07-19T02:16:23.398Z,91.03
2018-07-19T02:17:24.786Z,90.94
2018-07-19T02:18:26.185Z,91.03
2018-07-19T02:19:27.575Z,91.03
2018-07-19T02:20:28.973Z,91.03
2018-07-19T02:21:30.347Z,90.75
2018-07-19T02:22:31.750Z,91.03
2018-07-19T02:23:33.129Z,91.08
2018-07-19T02:24:34.528Z,91.08
2018-07-19T02:25:35.867Z,90.89
2018-07-19T02:26:37.239Z,90.89
2018-07-19T02:27:38.623Z,90.89
2018-07-19T02:28:39.976Z,91.08
2018-07-19T02:29:41.359Z,90.79
2018-07-19T02:30:42.768Z,90.98
2018-07-19T02:31:44.148Z,90.79
2018-07-19T02:32:45.538Z,90.69
2018-07-19T02:33:46.910Z,90.69
2018-07-19T02:34:48.315Z,90.69
2018-07-19T02:35:49.650Z,91.08
2018-07-19T02:36:51.842Z,91.08
2018-07-19T02:37:53.228Z,90.79
2018-07-19T02:38:54.630Z,90.98
2018-07-19T02:39:56.028Z,90.69
2018-07-19T02:40:57.418Z,90.89
2018-07-19T02:41:58.804Z,90.69
2018-07-19T02:43:00.149Z,90.65
2018-07-19T02:44:01.527Z,90.94
2018-07-19T02:45:02.919Z,90.84
2018-07-19T02:46:04.263Z,91.13
2018-07-19T02:47:05.647Z,91.22
2018-07-19T02:48:07.035Z,91.22
2018-07-19T02:49:08.375Z,91.22
2018-07-19T02:50:09.759Z,91.61
2018-07-19T02:51:11.157Z,91.42
2018-07-19T02:52:12.539Z,91.32
2018-07-19T02:53:14.749Z,91.61
2018-07-19T02:54:16.145Z,91.99
2018-07-19T02:55:17.531Z,91.61
2018-07-19T02:56:18.865Z,91.80
2018-07-19T02:57:20.287Z,91.80
2018-07-19T02:58:21.686Z,91.80
2018-07-19T02:59:23.066Z,92.19
2018-07-19T03:00:24.463Z,92.29
2018-07-19T03:01:25.858Z,92.29
2018-07-19T03:02:27.244Z,92.38
2018-07-19T03:03:28.627Z,92.67
2018-07-19T03:04:30.030Z,92.29
2018-07-19T03:05:31.428Z,92.47
2018-07-19T03:06:32.796Z,92.47
2018-07-19T03:07:34.186Z,93.05
2018-07-19T03:08:35.534Z,93.15
2018-07-19T03:09:36.916Z,93.24
2018-07-19T03:10:38.264Z,93.05
2018-07-19T03:11:39.652Z,92.96
2018-07-19T03:12:41.039Z,93.15
2018-07-19T03:13:42.430Z,92.96
2018-07-19T03:14:43.771Z,92.76
2018-07-19T03:15:45.153Z,93.05
2018-07-19T03:16:46.541Z,92.38
2018-07-19T03:17:47.939Z,92.52
2018-07-19T03:18:49.323Z,92.57
2018-07-19T03:19:50.711Z,92.47
2018-07-19T03:20:52.099Z,92.19
2018-07-19T03:21:53.439Z,92.76
2018-07-19T03:22:54.829Z,92.67
2018-07-19T03:23:56.220Z,92.52
2018-07-19T03:24:57.567Z,92.47
2018-07-19T03:25:58.957Z,92.71
2018-07-19T03:27:00.348Z,92.47
2018-07-19T03:28:01.738Z,92.38
2018-07-19T03:29:03.124Z,91.99
2018-07-19T03:30:04.516Z,92.96
2018-07-19T03:31:06.001Z,92.43
2018-07-19T03:32:07.299Z,92.47
2018-07-19T03:33:08.684Z,92.43
2018-07-19T03:34:10.087Z,92.09
2018-07-19T03:35:11.434Z,92.04
2018-07-19T03:36:12.812Z,92.23
2018-07-19T03:37:14.206Z,91.94
2018-07-19T03:38:15.596Z,91.80
2018-07-19T03:39:16.946Z,91.75
2018-07-19T03:40:18.341Z,92.19
2018-07-19T03:41:19.733Z,91.66
2018-07-19T03:42:21.133Z,91.56
2018-07-19T03:43:22.520Z,91.56
2018-07-19T03:44:23.900Z,91.94
2018-07-19T03:45:25.290Z,91.66
2018-07-19T03:46:26.683Z,91.66
2018-07-19T03:47:28.058Z,91.99
2018-07-19T03:48:29.411Z,92.13
2018-07-19T03:49:30.795Z,91.52
2018-07-19T03:50:32.765Z,91.56
2018-07-19T03:51:34.073Z,91.46
2018-07-19T03:52:35.433Z,91.56
2018-07-19T03:53:36.819Z,91.66
2018-07-19T03:54:38.204Z,91.52
2018-07-19T03:55:39.595Z,92.09
2018-07-19T03:56:40.988Z,91.99
2018-07-19T03:57:42.375Z,92.04
2018-07-19T03:58:44.415Z,91.94
2018-07-19T03:59:45.110Z,91.90
2018-07-19T04:00:46.500Z,91.75
2018-07-19T04:01:47.893Z,91.80
2018-07-19T04:02:49.234Z,91.85
2018-07-19T04:03:50.628Z,92.23
2018-07-19T04:04:52.024Z,92.23
2018-07-19T04:05:53.415Z,91.85
2018-07-19T04:06:54.795Z,92.19
2018-07-19T04:07:56.216Z,91.56
2018-07-19T04:08:57.602Z,91.42
2018-07-19T04:09:58.991Z,91.71
2018-07-19T04:11:00.376Z,92.04
2018-07-19T04:12:01.765Z,91.36
2018-07-19T04:13:03.154Z,91.66
2018-07-19T04:14:04.561Z,91.75
2018-07-19T04:15:05.963Z,91.56
2018-07-19T04:16:07.355Z,91.52
2018-07-19T04:17:08.797Z,91.66
2018-07-19T04:18:10.142Z,91.75
2018-07-19T04:19:11.534Z,92.09
2018-07-19T04:20:12.920Z,91.56
2018-07-19T04:21:14.320Z,92.19
2018-07-19T04:22:15.703Z,92.13
2018-07-19T04:23:17.105Z,92.09
2018-07-19T04:24:18.438Z,91.90
2018-07-19T04:25:19.840Z,92.38
2018-07-19T04:26:21.234Z,92.57
2018-07-19T04:27:22.623Z,92.43
2018-07-19T04:28:24.012Z,92.33
2018-07-19T04:29:25.403Z,92.71
2018-07-19T04:30:26.799Z,92.23
2018-07-19T04:31:28.191Z,92.61
2018-07-19T04:32:29.577Z,92.96
2018-07-19T04:33:30.974Z,92.52
2018-07-19T04:34:32.365Z,93.05
2018-07-19T04:35:33.764Z,93.15
2018-07-19T04:36:35.144Z,92.29
2018-07-19T04:37:36.542Z,92.61
2018-07-19T04:38:37.927Z,92.86
2018-07-19T04:39:39.323Z,92.61
2018-07-19T04:40:40.706Z,92.43
2018-07-19T04:41:42.107Z,92.61
2018-07-19T04:42:43.498Z,92.43
2018-07-19T04:43:44.852Z,92.81
2018-07-19T04:44:46.236Z,92.47
2018-07-19T04:45:47.624Z,92.52
2018-07-19T04:46:48.972Z,92.81
2018-07-19T04:47:50.376Z,92.71
2018-07-19T04:48:51.763Z,92.23
2018-07-19T04:49:53.157Z,92.52
2018-07-19T04:50:54.553Z,92.61
2018-07-19T04:51:56.909Z,92.43
2018-07-19T04:52:58.307Z,92.43
2018-07-19T04:53:59.693Z,92.23
2018-07-19T04:55:01.752Z,92.23
2018-07-19T04:56:03.129Z,92.23
2018-07-19T04:57:04.528Z,92.23
2018-07-19T04:58:05.878Z,91.94
2018-07-19T04:59:07.274Z,92.23
2018-07-19T05:00:08.666Z,92.04
2018-07-19T05:01:10.060Z,92.33
2018-07-19T05:02:11.552Z,92.23
2018-07-19T05:03:12.858Z,91.75
2018-07-19T05:04:14.242Z,91.66
2018-07-19T05:05:15.602Z,91.94
2018-07-19T05:06:16.983Z,91.46
2018-07-19T05:07:18.368Z,91.85
2018-07-19T05:08:19.762Z,91.27
2018-07-19T05:09:21.116Z,91.36
2018-07-19T05:10:22.512Z,92.13
2018-07-19T05:11:23.904Z,91.46
2018-07-19T05:12:25.255Z,91.27
2018-07-19T05:13:26.647Z,91.17
2018-07-19T05:14:28.051Z,91.08
2018-07-19T05:15:29.443Z,91.56
2018-07-19T05:16:30.790Z,91.08
2018-07-19T05:17:32.191Z,91.08
2018-07-19T05:18:33.587Z,90.98
2018-07-19T05:19:34.981Z,90.69
2018-07-19T05:20:36.333Z,90.89
2018-07-19T05:21:37.733Z,91.08
2018-07-19T05:22:39.119Z,91.08
2018-07-19T05:23:40.517Z,91.46
2018-07-19T05:24:41.861Z,90.79
2018-07-19T05:25:43.243Z,90.89
2018-07-19T05:26:44.652Z,90.79
2018-07-19T05:27:46.048Z,90.89
2018-07-19T05:28:47.431Z,90.89
2018-07-19T05:29:48.829Z,90.79
2018-07-19T05:30:50.218Z,90.69
2018-07-19T05:31:51.609Z,91.08
2018-07-19T05:32:53.008Z,90.89
2018-07-19T05:33:54.403Z,90.89
2018-07-19T05:34:55.793Z,91.03
2018-07-19T05:35:57.130Z,90.89
2018-07-19T05:36:58.528Z,90.79
2018-07-19T05:37:59.922Z,90.89
2018-07-19T05:39:01.307Z,90.98
2018-07-19T05:40:02.705Z,90.79
2018-07-19T05:41:04.107Z,90.83
2018-07-19T05:42:05.495Z,90.79
2018-07-19T05:43:06.882Z,90.69
2018-07-19T05:44:08.278Z,91.08
2018-07-19T05:45:09.667Z,90.69
2018-07-19T05:46:11.056Z,91.08
2018-07-19T05:47:13.093Z,91.17
2018-07-19T05:48:14.490Z,90.73
2018-07-19T05:49:15.872Z,90.69
2018-07-19T05:50:17.272Z,90.73
2018-07-19T05:51:18.676Z,91.22
2018-07-19T05:52:20.063Z,90.73
2018-07-19T05:53:21.456Z,90.73
2018-07-19T05:54:22.850Z,90.73
2018-07-19T05:55:24.212Z,91.13
2018-07-19T05:56:25.608Z,90.64
2018-07-19T05:57:26.986Z,90.35
2018-07-19T05:58:28.383Z,90.16
2018-07-19T05:59:29.771Z,90.45
2018-07-19T06:00:31.165Z,89.97
2018-07-19T06:01:32.563Z,89.78
2018-07-19T06:02:33.910Z,90.55
2018-07-19T06:03:35.304Z,90.16
2018-07-19T06:04:36.701Z,89.78
2018-07-19T06:05:38.088Z,89.87
2018-07-19T06:06:39.481Z,89.87
2018-07-19T06:07:40.881Z,89.68
2018-07-19T06:08:42.279Z,89.78
2018-07-19T06:09:43.688Z,89.68
2018-07-19T06:10:45.054Z,89.78
2018-07-19T06:11:46.447Z,89.58
2018-07-19T06:12:47.835Z,89.92
2018-07-19T06:13:49.232Z,89.68
2018-07-19T06:14:50.621Z,89.78
2018-07-19T06:15:52.006Z,89.49
2018-07-19T06:16:53.404Z,89.58
2018-07-19T06:17:54.798Z,89.34
2018-07-19T06:18:56.186Z,89.63
2018-07-19T06:19:57.578Z,89.24
2018-07-19T06:20:58.966Z,89.82
2018-07-19T06:22:00.362Z,89.63
2018-07-19T06:23:01.761Z,89.68
2018-07-19T06:24:03.142Z,89.68
2018-07-19T06:25:04.529Z,90.59
2018-07-19T06:26:05.914Z,90.59
2018-07-19T06:27:07.302Z,90.50
2018-07-19T06:28:08.693Z,89.92
2018-07-19T06:29:10.080Z,90.78
2018-07-19T06:30:11.477Z,90.50
2018-07-19T06:31:12.872Z,90.11
2018-07-19T06:32:14.268Z,90.30
2018-07-19T06:33:15.661Z,90.88
2018-07-19T06:34:17.075Z,90.88
2018-07-19T06:35:18.471Z,90.50
2018-07-19T06:36:19.865Z,90.50
2018-07-19T06:37:21.218Z,90.40
2018-07-19T06:38:22.616Z,89.92
2018-07-19T06:39:24.012Z,88.95
2018-07-19T06:40:25.379Z,88.85
2018-07-19T06:41:26.772Z,88.67
2018-07-19T06:42:28.166Z,88.85
2018-07-19T06:43:29.522Z,88.85
2018-07-19T06:44:30.907Z,89.05
2018-07-19T06:45:32.324Z,88.67
2018-07-19T06:46:33.728Z,88.76
2018-07-19T06:47:35.114Z,88.18
2018-07-19T06:48:36.506Z,88.76
2018-07-19T06:49:37.892Z,88.85
2018-07-19T06:50:39.294Z,89.24
2018-07-19T06:51:40.700Z,89.05
2018-07-19T06:52:42.086Z,88.38
2018-07-19T06:53:43.476Z,88.67
2018-07-19T06:54:44.863Z,88.18
2018-07-19T06:55:46.258Z,88.18
2018-07-19T06:56:47.664Z,88.57
2018-07-19T06:57:49.055Z,87.99
2018-07-19T06:58:50.450Z,87.94
2018-07-19T06:59:51.851Z,88.13
2018-07-19T07:00:53.243Z,87.94
2018-07-19T07:01:54.630Z,87.80
2018-07-19T07:02:56.018Z,87.80
2018-07-19T07:03:57.437Z,87.60
2018-07-19T07:04:58.833Z,87.90
2018-07-19T07:06:00.228Z,87.60
2018-07-19T07:07:01.620Z,87.70
2018-07-19T07:08:02.971Z,88.18
2018-07-19T07:09:04.416Z,87.80
2018-07-19T07:10:05.750Z,88.95
2018-07-19T07:11:07.107Z,88.18
2018-07-19T07:12:08.500Z,88.18
2018-07-19T07:13:09.893Z,87.70
2018-07-19T07:14:11.287Z,87.99
2018-07-19T07:15:12.687Z,87.80
2018-07-19T07:16:14.081Z,87.41
2018-07-19T07:17:15.477Z,87.22
2018-07-19T07:18:16.870Z,87.12
2018-07-19T07:19:18.265Z,87.60
2018-07-19T07:20:19.656Z,87.51
2018-07-19T07:21:21.103Z,87.60
2018-07-19T12:35:54.882Z,38.56
2018-07-19T12:36:56.315Z,37.77
2018-07-19T12:37:57.690Z,38.85
2018-07-19T12:38:59.089Z,38.95
2018-07-19T12:40:00.482Z,37.46
2018-07-19T12:41:01.883Z,37.95
2018-07-19T12:42:03.284Z,38.65
2018-07-19T12:43:04.675Z,37.97
2018-07-19T12:44:06.081Z,39.04
2018-07-19T12:45:07.486Z,37.39
2018-07-19T12:46:08.893Z,37.10
2018-07-19T12:47:10.293Z,38.17
2018-07-19T12:48:11.693Z,37.76
2018-07-19T12:49:13.097Z,37.85
2018-07-19T12:50:14.513Z,37.66
2018-07-19T12:51:15.912Z,41.26
2018-07-19T12:52:17.304Z,40.68
2018-07-19T12:53:18.706Z,40.88
2018-07-19T12:54:20.124Z,39.22
2018-07-19T12:55:21.505Z,39.88
2018-07-19T12:56:22.900Z,40.37
2018-07-19T12:57:24.310Z,39.59
2018-07-19T12:58:25.703Z,39.80
2018-07-19T12:59:27.126Z,38.73
2018-07-19T13:00:29.480Z,39.22
2018-07-19T13:01:30.876Z,39.22
2018-07-19T13:02:32.283Z,38.64
2018-07-19T13:03:33.682Z,38.64
2018-07-19T13:04:35.092Z,38.05
2018-07-19T13:05:36.497Z,37.95
2018-07-19T13:06:37.896Z,39.31
2018-07-19T13:07:39.295Z,38.91
2018-07-19T13:08:40.709Z,38.91
2018-07-19T13:09:42.125Z,39.20
2018-07-19T13:10:43.549Z,39.39
2018-07-19T13:11:44.980Z,39.20
2018-07-19T13:12:46.377Z,39.29
2018-07-19T13:13:47.770Z,39.29
2018-07-19T13:14:49.167Z,38.62
2018-07-19T13:15:50.573Z,38.91
2018-07-19T13:16:51.967Z,39.86
2018-07-19T13:17:53.356Z,39.18
2018-07-19T13:18:54.753Z,39.67
2018-07-19T13:19:56.146Z,38.98
2018-07-19T13:20:57.535Z,38.96
2018-07-19T13:21:58.985Z,39.76
2018-07-19T13:23:00.328Z,39.65
2018-07-19T13:24:01.728Z,41.01
2018-07-19T13:25:03.138Z,41.01
2018-07-19T13:26:04.532Z,41.30
2018-07-19T13:27:05.926Z,40.91
2018-07-19T13:28:07.425Z,41.01
2018-07-19T13:29:08.852Z,42.08
2018-07-19T13:30:10.239Z,40.91
2018-07-19T13:31:11.646Z,41.69
2018-07-19T13:32:13.035Z,41.59
2018-07-19T13:33:14.459Z,40.91
2018-07-19T13:34:15.838Z,41.10
2018-07-19T13:35:17.234Z,40.62
2018-07-19T13:36:18.643Z,40.81
2018-07-19T13:37:20.026Z,41.10
2018-07-19T13:38:21.429Z,41.39
2018-07-19T13:39:22.827Z,41.28
2018-07-19T13:40:24.225Z,41.18
2018-07-19T13:41:25.628Z,40.69
2018-07-19T13:42:27.024Z,40.89
2018-07-19T13:43:28.433Z,40.99
2018-07-19T13:44:29.826Z,40.79
2018-07-19T13:45:31.231Z,40.79
2018-07-19T13:46:32.633Z,40.69
2018-07-19T13:47:34.035Z,40.99
2018-07-19T13:48:35.438Z,40.99
2018-07-19T13:49:36.838Z,41.28
2018-07-19T13:50:38.238Z,41.77
2018-07-19T13:51:39.638Z,40.89
2018-07-19T13:52:41.040Z,41.08
2018-07-19T13:53:42.438Z,41.28
2018-07-19T13:54:43.842Z,41.08
2018-07-19T13:55:45.243Z,41.36
2018-07-19T13:56:46.642Z,40.97
2018-07-19T13:57:48.031Z,41.55
2018-07-19T13:58:49.435Z,41.55
2018-07-19T13:59:50.830Z,41.55
2018-07-19T14:00:52.213Z,42.43
2018-07-19T14:01:53.654Z,42.33
2018-07-19T14:02:55.071Z,42.71
2018-07-19T14:03:56.517Z,41.74
2018-07-19T14:04:57.831Z,42.03
2018-07-19T14:05:59.299Z,42.21
2018-07-19T14:07:00.703Z,42.03
2018-07-19T14:08:02.199Z,42.11
2018-07-19T14:09:03.590Z,41.92
2018-07-19T14:10:04.994Z,42.03
